Time;durP1;ratioP1;P1;durP2;ratioP2;P2;SDS_P1;SDS_P2;PMS_P1;PMS_P2;Temp;Humidity;BMP_temperature;BMP_pressure;BME280_temperature;BME280_humidity;BME280_pressure;Samples;Min_cycle;Max_cycle;Signal;HPM_P1;HPM_P2
2022/10/16 00:00:27;;;;;;;10.80;5.37;;;;;;;12.58;49.32;102028.81;5046693;28;20378;-62
2022/10/16 00:02:53;;;;;;;6.93;5.40;;;;;;;12.57;49.23;102036.97;5033230;28;20858;-62
2022/10/16 00:10:26;;;;;;;9.43;5.40;;;;;;;12.45;49.48;102040.81;5077450;27;20413;-57
2022/10/16 00:14:43;;;;;;;9.30;5.53;;;;;;;12.42;49.63;102031.31;5090395;27;20402;-61
2022/10/16 00:17:09;;;;;;;8.23;5.35;;;;;;;12.39;49.51;102029.78;5033609;28;20404;-60
2022/10/16 00:19:34;;;;;;;9.40;5.70;;;;;;;12.31;49.68;102035.00;5040484;28;20442;-61
2022/10/16 00:22:00;;;;;;;10.18;5.50;;;;;;;12.30;49.68;102035.16;5038026;28;20895;-61
2022/10/16 00:24:25;;;;;;;8.60;5.03;;;;;;;12.27;49.86;102030.16;5032623;28;20396;-61
2022/10/16 00:28:27;;;;;;;8.30;5.40;;;;;;;12.19;49.62;102017.59;5087501;27;20556;-62
2022/10/16 00:30:53;;;;;;;10.00;5.43;;;;;;;12.16;50.17;102013.41;5044988;28;20488;-61
2022/10/16 00:33:19;;;;;;;7.82;5.85;;;;;;;12.12;50.13;102005.88;5032437;28;20471;-61
2022/10/16 00:35:44;;;;;;;6.85;5.18;;;;;;;12.14;50.13;102012.72;5035661;28;20380;-69
2022/10/16 00:40:56;;;;;;;9.20;5.22;;;;;;;12.10;50.11;102011.34;5081668;27;20413;-61
2022/10/16 00:43:40;;;;;;;14.13;5.70;;;;;;;12.11;50.31;102013.00;5043877;28;20409;-59
2022/10/16 00:47:27;;;;;;;11.95;5.63;;;;;;;12.07;50.35;102006.34;5077649;27;20492;-61
2022/10/16 00:51:25;;;;;;;10.60;5.25;;;;;;;12.10;50.19;102005.19;5076711;27;21167;-60
2022/10/16 00:53:52;;;;;;;8.13;5.25;;;;;;;12.11;50.27;102015.66;5026293;28;20400;-61
2022/10/16 00:58:31;;;;;;;10.13;5.70;;;;;;;12.12;50.46;102028.00;5080545;27;20401;-61
2022/10/16 01:05:54;;;;;;;8.82;5.32;;;;;;;12.08;50.80;102033.75;5077652;27;20408;-60
2022/10/16 01:08:37;;;;;;;12.20;5.88;;;;;;;12.10;50.67;102031.75;5043743;28;20409;-61
2022/10/16 01:11:27;;;;;;;10.48;5.40;;;;;;;12.04;50.55;102031.38;5042801;28;20405;-62
2022/10/16 01:14:00;;;;;;;9.32;5.53;;;;;;;12.04;50.53;102033.19;5041607;28;20413;-60
2022/10/16 01:16:46;;;;;;;12.23;5.45;;;;;;;12.01;50.62;102037.00;5033470;28;20928;-61
2022/10/16 01:19:40;;;;;;;12.52;5.82;;;;;;;11.98;50.51;102044.44;5036054;28;21021;-61
2022/10/16 01:22:08;;;;;;;8.43;5.27;;;;;;;11.90;50.63;102038.97;5031569;28;20507;-62
2022/10/16 01:25:09;;;;;;;8.43;5.63;;;;;;;11.86;50.64;102039.25;5080620;27;20408;-61
2022/10/16 01:27:39;;;;;;;9.65;5.28;;;;;;;11.78;50.64;102047.13;5053741;28;20901;-61
2022/10/16 01:30:13;;;;;;;11.40;5.83;;;;;;;11.76;50.63;102056.22;5050094;28;20512;-61
2022/10/16 01:32:45;;;;;;;9.40;5.68;;;;;;;11.70;50.82;102047.00;5037994;28;20469;-61
2022/10/16 01:35:16;;;;;;;6.32;5.18;;;;;;;11.68;50.86;102054.28;5044198;28;20394;-61
2022/10/16 01:37:49;;;;;;;10.38;5.05;;;;;;;11.66;51.02;102054.41;5052333;28;20437;-61
2022/10/16 01:40:17;;;;;;;7.90;5.30;;;;;;;11.64;50.97;102069.66;5051228;28;20389;-60
2022/10/16 01:42:48;;;;;;;9.00;5.53;;;;;;;11.62;51.06;102065.47;5039803;28;20516;-61
2022/10/16 01:45:17;;;;;;;12.73;5.60;;;;;;;11.59;50.85;102055.97;5044357;28;20878;-60
2022/10/16 01:51:05;;;;;;;9.75;5.45;;;;;;;11.57;50.97;102073.03;5074087;27;20408;-61
2022/10/16 01:55:59;;;;;;;8.98;5.60;;;;;;;11.51;50.90;102068.31;5082315;27;20413;-61
2022/10/16 01:58:27;;;;;;;11.55;6.05;;;;;;;11.50;51.00;102083.38;5042594;28;20413;-60
2022/10/16 02:00:54;;;;;;;10.07;6.28;;;;;;;11.51;51.20;102071.78;5032678;28;20447;-61
2022/10/16 02:03:20;;;;;;;8.37;5.57;;;;;;;11.49;51.00;102073.75;5046722;28;20880;-60
2022/10/16 02:05:54;;;;;;;8.55;5.47;;;;;;;11.46;51.12;102074.03;5032313;28;20390;-62
2022/10/16 02:10:04;;;;;;;9.30;6.13;;;;;;;11.41;50.90;102076.28;5081634;27;20413;-61
2022/10/16 02:12:39;;;;;;;10.68;6.28;;;;;;;11.40;51.16;102085.25;5027033;28;20780;-61
2022/10/16 02:15:06;;;;;;;9.07;6.00;;;;;;;11.40;51.16;102078.09;5026810;28;20489;-61
2022/10/16 02:17:32;;;;;;;8.73;5.80;;;;;;;11.36;51.07;102084.69;5026985;28;20411;-61
2022/10/16 02:21:11;;;;;;;9.25;5.90;;;;;;;11.35;51.24;102082.16;5067113;27;20770;-62
2022/10/16 02:24:09;;;;;;;9.90;5.68;;;;;;;11.35;51.30;102098.09;5027013;28;20427;-61
2022/10/16 02:26:56;;;;;;;8.65;5.63;;;;;;;11.29;51.11;102095.03;5026050;28;20896;-61
2022/10/16 02:29:25;;;;;;;6.95;5.57;;;;;;;11.27;51.11;102104.09;5026859;28;20793;-61
2022/10/16 02:34:15;;;;;;;8.88;5.47;;;;;;;11.24;51.08;102105.22;5086824;27;20409;-61
2022/10/16 02:36:43;;;;;;;11.35;5.50;;;;;;;11.14;50.98;102103.53;5046316;28;20413;-60
2022/10/16 02:39:10;;;;;;;8.38;5.50;;;;;;;11.13;51.15;102109.81;5046833;28;20864;-61
2022/10/16 02:41:36;;;;;;;9.98;6.22;;;;;;;11.09;51.25;102106.59;5046569;28;20500;-61
2022/10/16 02:44:01;;;;;;;10.65;5.90;;;;;;;11.07;51.28;102111.22;5046814;28;20385;-61
2022/10/16 02:46:27;;;;;;;9.53;6.03;;;;;;;11.06;51.24;102113.03;5033455;28;20384;-60
2022/10/16 02:48:52;;;;;;;8.03;5.80;;;;;;;11.01;51.64;102104.66;5031551;28;20753;-61
2022/10/16 02:51:18;;;;;;;9.75;5.95;;;;;;;11.04;51.61;102109.69;5046656;28;20406;-60
2022/10/16 02:53:43;;;;;;;11.03;6.23;;;;;;;11.02;51.36;102111.63;5046312;28;20409;-61
2022/10/16 02:56:09;;;;;;;10.83;6.17;;;;;;;11.01;51.27;102109.94;5046269;28;20473;-61
2022/10/16 02:58:35;;;;;;;13.52;6.45;;;;;;;11.02;51.28;102118.75;5032364;28;20380;-61
2022/10/16 03:02:02;;;;;;;11.02;6.53;;;;;;;10.99;51.31;102109.25;5085029;27;20411;-61
2022/10/16 03:04:28;;;;;;;9.00;5.78;;;;;;;10.96;51.18;102108.69;5058829;28;20401;-61
2022/10/16 03:06:53;;;;;;;8.93;6.20;;;;;;;10.91;51.69;102114.41;5058814;28;20381;-60
2022/10/16 03:10:24;;;;;;;11.18;5.93;;;;;;;10.82;51.69;102104.63;5067792;27;20422;-61
2022/10/16 03:12:49;;;;;;;8.15;6.00;;;;;;;10.80;51.87;102110.06;5026822;28;20396;-60
2022/10/16 03:15:15;;;;;;;9.07;6.30;;;;;;;10.80;51.66;102109.22;5026855;28;21007;-61
2022/10/16 03:18:40;;;;;;;9.57;6.25;;;;;;;10.79;52.01;102120.81;5085555;27;20420;-61
2022/10/16 03:21:06;;;;;;;10.18;6.70;;;;;;;10.81;51.97;102124.19;5029000;28;20403;-61
2022/10/16 03:25:38;;;;;;;9.82;6.40;;;;;;;10.78;51.98;102127.09;5070866;27;20776;-61
2022/10/16 03:28:04;;;;;;;11.35;6.57;;;;;;;10.72;52.08;102125.84;5027022;28;20912;-61
2022/10/16 03:30:29;;;;;;;10.18;6.60;;;;;;;10.72;52.17;102125.84;5027035;28;20390;-61
2022/10/16 03:32:55;;;;;;;10.90;6.55;;;;;;;10.73;52.52;102129.31;5026448;28;20402;-60
2022/10/16 03:35:22;;;;;;;8.60;6.20;;;;;;;10.75;52.14;102135.31;5026847;28;20384;-61
2022/10/16 03:37:47;;;;;;;11.07;6.47;;;;;;;10.74;52.33;102137.13;5026584;28;20389;-60
2022/10/16 03:42:28;;;;;;;10.45;6.80;;;;;;;10.74;52.31;102142.44;5073866;27;20781;-61
2022/10/16 03:44:53;;;;;;;9.05;7.15;;;;;;;10.77;52.24;102151.94;5026696;28;20882;-61
2022/10/16 03:48:27;;;;;;;10.30;6.88;;;;;;;10.78;52.60;102151.78;5059057;27;20498;-61
2022/10/16 03:53:34;;;;;;;13.90;7.50;;;;;;;10.66;52.42;102136.97;5092214;27;20412;-62
2022/10/16 03:56:00;;;;;;;13.98;7.95;;;;;;;10.67;52.29;102149.25;5046850;28;20398;-61
2022/10/16 03:58:25;;;;;;;12.40;7.70;;;;;;;10.60;52.58;102148.97;5046669;28;20386;-61
2022/10/16 04:00:51;;;;;;;11.70;8.00;;;;;;;10.62;53.12;102156.78;5046814;28;20745;-62
2022/10/16 04:03:18;;;;;;;11.20;7.53;;;;;;;10.59;52.92;102151.75;5046370;28;20836;-60
2022/10/16 04:05:58;;;;;;;9.85;7.53;;;;;;;10.64;52.85;102155.69;5082699;27;20783;-61
2022/10/16 04:08:24;;;;;;;12.23;7.78;;;;;;;10.66;53.02;102155.53;5031505;28;20404;-60
2022/10/16 04:12:02;;;;;;;14.35;8.35;;;;;;;10.61;52.98;102152.47;5062774;27;20413;-61
2022/10/16 04:14:28;;;;;;;13.45;8.27;;;;;;;10.62;52.90;102149.66;5026505;28;20407;-61
2022/10/16 04:16:53;;;;;;;11.30;7.90;;;;;;;10.58;52.57;102150.06;5027163;28;20387;-62
2022/10/16 04:19:19;;;;;;;11.63;8.23;;;;;;;10.61;52.93;102152.47;5026642;28;20376;-61
2022/10/16 04:21:44;;;;;;;11.43;8.33;;;;;;;10.56;52.35;102144.91;5026558;28;20870;-61
2022/10/16 04:24:11;;;;;;;10.67;8.47;;;;;;;10.58;52.83;102158.88;5026887;28;20474;-62
2022/10/16 04:26:37;;;;;;;12.93;8.73;;;;;;;10.60;52.52;102156.06;5026651;28;20415;-61
2022/10/16 04:29:02;;;;;;;17.70;8.40;;;;;;;10.55;52.71;102159.13;5026651;28;20546;-61
2022/10/16 04:31:28;;;;;;;8.47;7.43;;;;;;;10.54;52.60;102167.25;5026470;28;20419;-61
2022/10/16 04:33:53;;;;;;;9.17;7.90;;;;;;;10.53;52.57;102169.03;5026627;28;20404;-62
2022/10/16 04:36:19;;;;;;;10.75;7.25;;;;;;;10.52;52.32;102170.00;5025998;28;20383;-61
2022/10/16 04:38:44;;;;;;;13.13;7.77;;;;;;;10.47;52.08;102165.09;5026224;28;20909;-61
2022/10/16 04:41:10;;;;;;;12.23;8.37;;;;;;;10.50;52.49;102166.66;5025989;28;20379;-61
2022/10/16 04:43:35;;;;;;;11.97;7.90;;;;;;;10.48;52.33;102168.63;5026127;28;20838;-62
2022/10/16 04:46:01;;;;;;;11.77;7.50;;;;;;;10.45;52.30;102167.06;5026264;28;20437;-61
2022/10/16 04:48:27;;;;;;;12.40;7.43;;;;;;;10.40;51.97;102169.25;5018737;28;20890;-61
2022/10/16 04:50:52;;;;;;;12.77;8.15;;;;;;;10.40;52.26;102169.25;5015825;28;20514;-61
2022/10/16 04:53:18;;;;;;;12.53;8.03;;;;;;;10.39;52.38;102172.91;5023877;28;20387;-62
2022/10/16 04:55:43;;;;;;;11.50;8.23;;;;;;;10.38;51.99;102176.50;5022148;28;20392;-62
2022/10/16 04:58:09;;;;;;;12.00;8.60;;;;;;;10.41;51.97;102180.72;5024734;28;20433;-60
2022/10/16 05:00:35;;;;;;;12.77;9.13;;;;;;;10.49;52.18;102180.88;5025308;28;20399;-62
2022/10/16 05:03:01;;;;;;;13.17;7.80;;;;;;;10.55;51.72;102174.19;5025313;28;20462;-61
2022/10/16 05:05:27;;;;;;;9.13;7.25;;;;;;;10.61;51.75;102181.63;5025269;28;20438;-61
2022/10/16 05:07:53;;;;;;;10.77;8.00;;;;;;;10.66;51.50;102187.34;5025046;28;20388;-62
2022/10/16 05:10:19;;;;;;;9.97;7.53;;;;;;;10.71;51.36;102186.00;5025014;28;20431;-62
2022/10/16 05:12:44;;;;;;;13.87;8.10;;;;;;;10.77;51.25;102191.72;5024732;28;20383;-61
2022/10/16 05:15:10;;;;;;;12.75;9.00;;;;;;;10.85;51.47;102197.19;5024782;28;20467;-61
2022/10/16 05:19:32;;;;;;;15.60;10.57;;;;;;;11.01;51.23;102208.13;5063831;27;20474;-60
2022/10/16 05:21:57;;;;;;;14.50;9.90;;;;;;;11.14;50.62;102210.53;5043515;28;20401;-62
2022/10/16 05:24:23;;;;;;;11.75;8.70;;;;;;;11.25;50.52;102213.09;5044067;28;20890;-62
2022/10/16 05:26:50;;;;;;;12.70;8.50;;;;;;;11.40;50.31;102216.16;5044813;28;20396;-62
2022/10/16 05:29:15;;;;;;;11.20;7.88;;;;;;;11.57;50.04;102224.41;5044995;28;20393;-60
2022/10/16 05:31:40;;;;;;;11.70;7.55;;;;;;;11.67;49.44;102219.97;5044625;28;20511;-61
2022/10/16 05:34:06;;;;;;;12.43;7.80;;;;;;;11.83;49.32;102232.69;5043228;28;20895;-60
2022/10/16 05:38:38;;;;;;;13.50;7.72;;;;;;;11.86;48.78;102221.75;5064020;27;20422;-63
2022/10/16 05:41:05;;;;;;;11.27;7.60;;;;;;;11.89;48.72;102221.47;5026258;28;20399;-60
2022/10/16 05:43:32;;;;;;;13.83;8.13;;;;;;;11.90;48.81;102223.16;5025971;28;20782;-63
2022/10/16 05:46:03;;;;;;;12.80;8.18;;;;;;;12.09;48.49;102229.47;5026119;28;20834;-61
2022/10/16 05:48:29;;;;;;;11.45;7.97;;;;;;;12.21;48.33;102242.44;5026167;28;20598;-61
2022/10/16 05:51:10;;;;;;;9.93;7.60;;;;;;;12.30;48.32;102237.22;5025865;28;20382;-61
2022/10/16 05:53:37;;;;;;;10.25;7.78;;;;;;;12.50;48.11;102244.19;5026098;28;20388;-60
2022/10/16 05:56:04;;;;;;;13.70;7.68;;;;;;;12.58;47.88;102238.97;5025861;28;20905;-60
2022/10/16 05:58:32;;;;;;;11.50;8.13;;;;;;;12.81;47.74;102243.94;5014046;28;22166;-62
2022/10/16 06:01:07;;;;;;;18.75;8.48;;;;;;;13.01;47.16;102247.31;5025708;28;20445;-61
2022/10/16 06:03:33;;;;;;;9.43;7.55;;;;;;;13.10;47.08;102248.25;5025745;28;20769;-61
2022/10/16 06:05:59;;;;;;;9.85;7.20;;;;;;;13.05;46.84;102256.69;5025913;28;20379;-61
2022/10/16 06:08:24;;;;;;;11.02;7.78;;;;;;;13.18;46.96;102259.84;5025065;28;20395;-61
2022/10/16 06:11:19;;;;;;;13.48;8.30;;;;;;;13.41;46.40;102261.28;5068491;27;20930;-60
2022/10/16 06:13:45;;;;;;;18.05;9.13;;;;;;;13.53;46.85;102255.56;5064300;28;20407;-60
2022/10/16 06:16:12;;;;;;;11.50;8.38;;;;;;;13.65;46.62;102255.34;5063235;28;20380;-60
2022/10/16 06:18:38;;;;;;;14.68;8.30;;;;;;;13.82;46.37;102259.84;5064958;28;20391;-60
2022/10/16 06:21:12;;;;;;;14.87;8.47;;;;;;;13.92;46.26;102267.78;5064837;28;20390;-59
2022/10/16 06:23:38;;;;;;;10.13;7.70;;;;;;;13.94;46.00;102261.28;5065968;28;20391;-60
2022/10/16 06:26:12;;;;;;;14.90;9.37;;;;;;;13.99;46.75;102258.16;5060641;28;20410;-60
2022/10/16 06:28:38;;;;;;;13.40;9.13;;;;;;;14.25;47.09;102276.00;5063864;28;20523;-61
2022/10/16 06:31:06;;;;;;;11.38;8.30;;;;;;;14.23;46.69;102268.16;5062466;28;20418;-60
2022/10/16 06:35:16;;;;;;;15.50;8.32;;;;;;;14.09;47.16;102277.56;5060345;27;20412;-61
2022/10/16 06:37:42;;;;;;;15.93;10.07;;;;;;;14.10;47.05;102283.75;5025918;28;20407;-60
2022/10/16 06:40:08;;;;;;;15.63;8.93;;;;;;;14.14;47.05;102298.44;5026353;28;20479;-61
2022/10/16 06:43:21;;;;;;;16.10;8.77;;;;;;;14.33;47.01;102292.91;5104709;27;893731;-59
2022/10/16 06:45:55;;;;;;;18.17;8.70;;;;;;;14.33;46.87;102297.38;5166472;27;20470;-62
2022/10/16 06:48:21;;;;;;;13.50;8.70;;;;;;;14.44;46.93;102304.31;5165275;27;20453;-61
2022/10/16 06:51:02;;;;;;;12.80;8.32;;;;;;;14.49;46.49;102300.16;5167165;27;20376;-61
2022/10/16 06:53:31;;;;;;;12.75;8.68;;;;;;;14.55;46.65;102293.38;5166604;27;20383;-60
2022/10/16 06:55:57;;;;;;;15.93;9.33;;;;;;;14.65;46.50;102302.13;5168304;27;20467;-61
2022/10/16 06:58:23;;;;;;;16.53;10.30;;;;;;;14.67;46.80;102294.81;5162827;27;20723;-60
2022/10/16 07:00:48;;;;;;;14.07;9.60;;;;;;;14.78;47.21;102307.03;5164051;27;20378;-63
2022/10/16 07:03:14;;;;;;;15.07;9.60;;;;;;;14.70;47.14;102310.50;5164373;27;20409;-64
2022/10/16 07:05:52;;;;;;;16.00;10.07;;;;;;;14.64;47.60;102312.97;5067527;27;20782;-64
2022/10/16 07:08:17;;;;;;;16.25;10.30;;;;;;;14.60;47.62;102312.44;5044772;28;20876;-62
2022/10/16 07:10:43;;;;;;;17.23;10.43;;;;;;;14.68;47.41;102314.34;5029840;28;20797;-63
2022/10/16 07:13:08;;;;;;;15.98;9.93;;;;;;;14.74;47.31;102311.03;5035341;28;20382;-64
2022/10/16 07:15:34;;;;;;;14.63;9.67;;;;;;;14.72;47.47;102305.03;5029934;28;20569;-63
2022/10/16 07:17:59;;;;;;;16.03;10.10;;;;;;;14.68;47.33;102301.81;5033476;28;20381;-63
2022/10/16 07:20:25;;;;;;;17.70;10.37;;;;;;;14.70;47.71;102301.69;5032361;28;20893;-65
2022/10/16 07:22:51;;;;;;;19.30;10.10;;;;;;;14.81;47.60;102311.25;5031035;28;20404;-63
2022/10/16 07:25:17;;;;;;;17.08;11.38;;;;;;;14.78;47.41;102316.88;5034550;28;20411;-64
2022/10/16 07:27:43;;;;;;;16.52;11.25;;;;;;;14.70;47.83;102307.84;5029372;28;20481;-62
2022/10/16 07:30:09;;;;;;;15.67;10.10;;;;;;;14.88;48.02;102307.78;5036546;28;20462;-61
2022/10/16 07:32:34;;;;;;;16.70;9.55;;;;;;;14.96;47.10;102306.97;5027143;28;20427;-60
2022/10/16 07:37:03;;;;;;;15.15;9.85;;;;;;;15.24;46.88;102304.09;5083828;27;20396;-60
2022/10/16 07:41:22;;;;;;;16.33;10.63;;;;;;;15.24;46.47;102306.75;5063136;27;20791;-60
2022/10/16 07:43:53;;;;;;;15.23;10.63;;;;;;;15.34;46.52;102303.94;5043601;28;20892;-60
2022/10/16 07:46:20;;;;;;;16.08;10.77;;;;;;;15.48;46.50;102308.66;5042468;28;20445;-63
2022/10/16 07:48:47;;;;;;;20.13;11.18;;;;;;;15.42;46.32;102310.16;5044651;28;20390;-60
2022/10/16 07:51:15;;;;;;;14.40;9.98;;;;;;;15.51;45.98;102310.19;5030748;28;20468;-60
2022/10/16 07:53:41;;;;;;;16.80;10.63;;;;;;;15.66;45.75;102320.09;5026370;28;20383;-60
2022/10/16 07:56:07;;;;;;;17.75;10.43;;;;;;;15.85;45.14;102324.31;5025249;28;20398;-62
2022/10/16 07:58:34;;;;;;;20.30;10.95;;;;;;;15.78;45.17;102322.47;5025203;28;20470;-61
2022/10/16 08:01:04;;;;;;;14.40;10.52;;;;;;;15.71;45.07;102332.94;5026299;28;20422;-61
2022/10/16 08:03:29;;;;;;;14.73;10.43;;;;;;;15.61;45.36;102332.25;5025694;28;20395;-62
2022/10/16 08:05:57;;;;;;;17.58;11.40;;;;;;;15.56;45.57;102335.41;5024328;28;20383;-62
2022/10/16 08:08:23;;;;;;;17.67;10.55;;;;;;;15.57;45.66;102325.56;5023702;28;20789;-62
2022/10/16 08:10:49;;;;;;;16.77;10.53;;;;;;;15.64;45.31;102331.91;5024155;28;21983;-61
2022/10/16 08:13:15;;;;;;;16.90;10.48;;;;;;;15.81;45.41;102335.47;5023148;28;20395;-63
2022/10/16 08:15:42;;;;;;;15.93;10.45;;;;;;;15.91;44.79;102322.81;5039727;28;20811;-61
2022/10/16 08:18:09;;;;;;;17.77;10.57;;;;;;;16.02;44.95;102327.00;5038621;28;20870;-62
2022/10/16 08:20:34;;;;;;;15.15;10.07;;;;;;;16.11;44.81;102325.97;5038352;28;20444;-61
2022/10/16 08:23:00;;;;;;;14.38;10.38;;;;;;;16.20;44.30;102324.97;5031917;28;20409;-61
2022/10/16 08:25:27;;;;;;;16.95;9.73;;;;;;;16.33;44.12;102324.50;5046090;28;20420;-61
2022/10/16 08:27:52;;;;;;;17.42;10.05;;;;;;;16.44;43.94;102326.00;5045862;28;20401;-61
2022/10/16 08:30:19;;;;;;;16.53;9.53;;;;;;;16.51;43.68;102331.47;5036356;28;20749;-61
2022/10/16 08:32:45;;;;;;;17.85;9.93;;;;;;;16.24;44.32;102334.38;5025954;28;20466;-61
2022/10/16 08:35:12;;;;;;;15.90;10.33;;;;;;;16.32;44.17;102330.84;5025929;28;20459;-61
2022/10/16 08:37:38;;;;;;;14.20;9.93;;;;;;;16.28;44.34;102334.88;5039561;28;20393;-61
2022/10/16 08:40:06;;;;;;;15.95;10.18;;;;;;;16.35;44.02;102329.66;5031419;28;20428;-61
2022/10/16 08:42:31;;;;;;;15.88;10.20;;;;;;;16.41;43.95;102337.84;5045490;28;20374;-61
2022/10/16 08:45:14;;;;;;;16.23;10.10;;;;;;;16.44;43.94;102345.56;5031367;28;20443;-61
2022/10/16 08:47:54;;;;;;;14.23;10.15;;;;;;;16.34;44.00;102336.84;5045753;28;20396;-62
2022/10/16 08:50:29;;;;;;;13.70;9.70;;;;;;;16.30;44.00;102351.59;5032120;28;20409;-61
2022/10/16 08:52:55;;;;;;;17.00;10.27;;;;;;;16.28;44.17;102352.72;5031783;28;20390;-61
2022/10/16 08:55:33;;;;;;;16.20;9.98;;;;;;;16.50;44.00;102341.34;5018199;28;20397;-61
2022/10/16 08:58:00;;;;;;;15.68;9.98;;;;;;;16.40;44.04;102348.72;5032322;28;20477;-61
2022/10/16 09:00:27;;;;;;;17.25;11.07;;;;;;;16.43;44.00;102341.19;5026577;28;20419;-61
2022/10/16 09:03:14;;;;;;;18.95;9.90;;;;;;;16.36;44.06;102345.53;5023939;28;20379;-61
2022/10/16 09:06:13;;;;;;;14.07;10.02;;;;;;;16.43;44.15;102346.53;4998899;28;20384;-61
2022/10/16 09:09:11;;;;;;;17.48;9.98;;;;;;;16.65;43.68;102344.16;5014983;28;20382;-61
2022/10/16 09:11:39;;;;;;;15.98;9.80;;;;;;;16.70;43.45;102349.84;5021883;28;20392;-62
2022/10/16 09:14:43;;;;;;;14.32;9.35;;;;;;;16.63;43.62;102346.19;5011985;28;20376;-63
2022/10/16 09:17:23;;;;;;;13.48;9.77;;;;;;;16.84;43.22;102351.03;4995966;28;20392;-61
2022/10/16 09:20:27;;;;;;;14.83;9.87;;;;;;;16.67;43.59;102349.34;5006693;28;20512;-61
2022/10/16 09:23:17;;;;;;;17.00;10.23;;;;;;;16.85;43.18;102346.50;5018878;28;20862;-62
2022/10/16 09:25:47;;;;;;;14.18;9.98;;;;;;;16.85;43.42;102339.31;5022488;28;20965;-61
2022/10/16 09:28:13;;;;;;;15.68;10.27;;;;;;;16.80;43.63;102339.81;5031367;28;20394;-61
2022/10/16 09:30:39;;;;;;;16.50;9.63;;;;;;;16.82;43.57;102335.09;5031391;28;20386;-61
2022/10/16 09:33:06;;;;;;;15.15;10.50;;;;;;;16.92;43.23;102331.41;5012871;28;20748;-61
2022/10/16 09:35:37;;;;;;;16.20;9.70;;;;;;;17.12;43.26;102334.53;5011544;28;20384;-61
2022/10/16 09:39:45;;;;;;;13.00;9.52;;;;;;;17.28;42.71;102328.28;5066106;27;20406;-63
2022/10/16 09:42:16;;;;;;;14.15;9.73;;;;;;;17.18;42.99;102326.63;5026983;28;20403;-61
2022/10/16 09:47:14;;;;;;;16.00;10.05;;;;;;;17.20;42.99;102321.09;5089832;27;20400;-60
2022/10/16 09:49:51;;;;;;;13.85;9.38;;;;;;;17.28;42.86;102329.09;5032260;28;20905;-60
2022/10/16 09:52:18;;;;;;;12.60;9.00;;;;;;;17.36;42.64;102326.38;5046731;28;20374;-60
2022/10/16 09:54:54;;;;;;;19.60;9.57;;;;;;;17.33;42.87;102332.09;5032409;28;20513;-61
2022/10/16 09:57:21;;;;;;;15.45;9.18;;;;;;;17.31;43.02;102338.66;5046737;28;20497;-61
2022/10/16 09:59:52;;;;;;;14.93;9.27;;;;;;;17.32;42.91;102333.13;5046445;28;20440;-58
2022/10/16 10:02:23;;;;;;;12.10;8.10;;;;;;;17.44;42.70;102322.00;5033206;28;20496;-61
2022/10/16 10:04:56;;;;;;;13.93;8.63;;;;;;;17.48;42.70;102316.09;5046450;28;20885;-62
2022/10/16 10:07:35;;;;;;;12.77;8.98;;;;;;;17.48;42.54;102316.09;5033043;28;20390;-61
2022/10/16 10:10:04;;;;;;;13.57;8.00;;;;;;;17.48;42.56;102318.75;5031880;28;20402;-60
2022/10/16 10:12:37;;;;;;;16.98;8.38;;;;;;;17.33;42.54;102307.13;5029346;28;20493;-62
2022/10/16 10:15:05;;;;;;;13.35;8.13;;;;;;;17.51;42.50;102310.38;5046432;28;20876;-61
2022/10/16 10:17:31;;;;;;;15.95;8.30;;;;;;;17.58;42.23;102311.34;5045866;28;20385;-61
2022/10/16 10:20:00;;;;;;;13.07;7.85;;;;;;;17.58;41.91;102305.16;5037990;28;20394;-61
2022/10/16 10:22:31;;;;;;;11.90;7.63;;;;;;;17.75;42.01;102311.22;5040716;28;20397;-60
2022/10/16 10:25:11;;;;;;;12.70;7.53;;;;;;;17.82;41.53;102301.44;5038866;28;20398;-62
2022/10/16 10:27:48;;;;;;;10.77;7.40;;;;;;;17.75;41.50;102293.31;5041092;28;20393;-61
2022/10/16 10:30:35;;;;;;;11.30;7.20;;;;;;;17.82;41.45;102298.75;5045859;28;20389;-61
2022/10/16 10:33:22;;;;;;;13.98;6.97;;;;;;;17.92;41.41;102288.66;5042047;28;20893;-61
2022/10/16 10:36:08;;;;;;;10.65;7.28;;;;;;;17.99;41.10;102291.47;5026657;28;20778;-61
2022/10/16 10:38:45;;;;;;;14.33;7.13;;;;;;;18.08;40.80;102284.19;5025868;28;20384;-61
2022/10/16 10:43:14;;;;;;;11.13;6.85;;;;;;;18.18;40.44;102278.56;5068913;27;20907;-59
2022/10/16 10:45:46;;;;;;;9.68;6.07;;;;;;;18.17;40.09;102269.69;5037047;28;20407;-61
2022/10/16 10:48:18;;;;;;;12.35;6.45;;;;;;;18.34;40.20;102278.41;5027024;28;20392;-61
2022/10/16 10:50:57;;;;;;;10.02;5.90;;;;;;;18.51;39.82;102271.00;5036697;28;20384;-60
2022/10/16 10:53:40;;;;;;;8.93;5.55;;;;;;;18.50;39.31;102277.41;5032579;28;20400;-61
2022/10/16 10:56:24;;;;;;;8.90;5.82;;;;;;;18.49;39.17;102259.59;5046844;28;20386;-60
2022/10/16 10:59:37;;;;;;;10.77;5.95;;;;;;;18.51;39.35;102261.09;5040474;28;20445;-60
2022/10/16 11:02:26;;;;;;;10.82;5.60;;;;;;;18.61;38.90;102260.00;5013584;28;20413;-61
2022/10/16 11:04:54;;;;;;;10.32;5.68;;;;;;;18.66;38.70;102257.59;5046472;28;20894;-61
2022/10/16 11:07:22;;;;;;;9.45;5.07;;;;;;;18.72;38.21;102246.09;5040025;28;20399;-62
2022/10/16 11:09:52;;;;;;;10.60;5.23;;;;;;;18.84;37.97;102259.91;5026229;28;20387;-60
2022/10/16 11:12:27;;;;;;;7.45;4.95;;;;;;;18.87;38.04;102246.09;5029785;28;20375;-61
2022/10/16 11:15:03;;;;;;;10.10;5.13;;;;;;;18.87;37.52;102244.25;5026172;28;20411;-61
2022/10/16 11:17:38;;;;;;;9.85;4.85;;;;;;;18.86;37.33;102241.75;5040382;28;20390;-60
2022/10/16 11:20:12;;;;;;;6.28;4.13;;;;;;;18.77;36.71;102245.53;5035476;28;20382;-60
2022/10/16 11:23:20;;;;;;;9.10;4.40;;;;;;;18.90;36.67;102240.34;5085372;27;20405;-63
2022/10/16 11:25:47;;;;;;;8.43;4.10;;;;;;;19.01;36.51;102239.03;5040771;28;20404;-57
2022/10/16 11:30:18;;;;;;;8.32;3.95;;;;;;;19.00;36.01;102250.81;5082902;27;20401;-60
2022/10/16 11:33:09;;;;;;;7.53;4.20;;;;;;;19.02;35.58;102243.41;5026417;28;20482;-60
2022/10/16 11:40:33;;;;;;;7.40;4.28;;;;;;;19.15;35.65;102230.09;5026902;28;20457;-61
2022/10/16 11:43:28;;;;;;;10.35;4.10;;;;;;;19.15;34.96;102232.78;5028621;28;20383;-61
2022/10/16 11:45:57;;;;;;;7.03;4.17;;;;;;;19.20;34.81;102234.91;5045720;28;20455;-63
2022/10/16 11:48:57;;;;;;;6.90;3.92;;;;;;;19.23;35.17;102229.13;5028193;28;20383;-61
2022/10/16 11:51:43;;;;;;;5.83;3.77;;;;;;;19.31;34.64;102233.59;5027520;28;20957;-61
2022/10/16 11:54:21;;;;;;;6.55;3.83;;;;;;;19.27;34.25;102235.81;5046942;28;20768;-61
2022/10/16 11:56:51;;;;;;;8.25;4.13;;;;;;;19.25;34.53;102230.63;5028892;28;20921;-61
2022/10/16 11:59:53;;;;;;;6.20;3.80;;;;;;;19.34;34.61;102230.50;5026411;28;20395;-62
2022/10/16 12:02:35;;;;;;;5.97;3.58;;;;;;;19.41;34.56;102234.94;5009427;28;20481;-61
2022/10/16 12:07:27;;;;;;;7.82;3.80;;;;;;;19.38;34.71;102235.31;5085077;27;20401;-61
2022/10/16 12:09:53;;;;;;;5.70;3.63;;;;;;;19.32;34.40;102217.25;5026706;28;20421;-61
2022/10/16 12:12:37;;;;;;;8.27;3.83;;;;;;;19.40;34.47;102227.88;5012417;28;20388;-60
2022/10/16 12:15:05;;;;;;;7.30;4.13;;;;;;;19.46;34.40;102226.28;5026917;28;20384;-61
2022/10/16 12:17:38;;;;;;;8.80;3.70;;;;;;;19.53;34.48;102229.84;5026528;28;20383;-61
2022/10/16 12:20:12;;;;;;;5.72;3.67;;;;;;;19.54;34.40;102215.41;5017774;28;20393;-60
2022/10/16 12:22:55;;;;;;;8.23;4.15;;;;;;;19.56;34.35;102223.28;5023002;28;20390;-60
2022/10/16 12:25:31;;;;;;;6.97;3.40;;;;;;;19.57;34.29;102219.53;5016252;28;20409;-61
2022/10/16 12:28:05;;;;;;;8.43;3.93;;;;;;;19.64;33.99;102228.50;5020636;28;20385;-62
2022/10/16 12:30:35;;;;;;;7.55;3.72;;;;;;;19.59;33.78;102222.88;5018030;28;20391;-61
2022/10/16 12:33:20;;;;;;;5.85;3.60;;;;;;;19.60;33.69;102219.16;5022702;28;20408;-61
2022/10/16 12:35:46;;;;;;;5.60;3.50;;;;;;;19.54;33.78;102210.03;5018652;28;20964;-61
2022/10/16 12:38:21;;;;;;;6.78;3.65;;;;;;;19.61;33.79;102210.91;5021888;28;20548;-61
2022/10/16 12:40:58;;;;;;;7.45;3.83;;;;;;;19.67;33.94;102199.38;5018305;28;20474;-61
2022/10/16 12:43:42;;;;;;;7.23;3.83;;;;;;;19.73;33.83;102205.84;5025936;28;20437;-61
2022/10/16 12:46:07;;;;;;;6.55;3.80;;;;;;;19.71;33.78;102210.56;5026253;28;20419;-61